Flight Track Log - Related Links

Times and Time Zones

All times are in EDT time to prevent confusion due to time zone crossing. See the DAL3799 flight status page for this flight to view local times or setup timezone preferences in your user account.

Time Position Orientation Groundspeed Altitude Reporting Facility
EDT Latitude Longitude Course Direction KTS MPH feet Rate Location/Type
Sun 10:16:26 PM 42.2314 -83.3342 12° North 171 197 1,300  Level Cleveland Center
Sun 10:16:45 PM 42.2461 -83.3236 28° Northeast 199 229 1,900 2,203 Climbing Cleveland Center
Sun 10:17:45 PM 42.2992 -83.2811 31° Northeast 261 300 4,200 2,450 Climbing Cleveland Center
Sun 10:18:45 PM 42.3692 -83.2389 24° Northeast 281 323 6,800 2,430 Climbing Cleveland Center
Sun 10:19:00 PM 42.5230 -83.2398 12° North  Level FlightAware Approximate
Sun 10:19:46 PM 42.4403 -83.2281 North 281 323 9,100  Level Cleveland Center
Sun 10:20:00 PM 42.6337 -83.2066 12° North  Level FlightAware Approximate
Sun 10:20:45 PM 42.5281 -83.2092 North 293 337 10,800  Level Cleveland Center
Sun 10:21:00 PM 42.7444 -83.1734 12° North  Level FlightAware Approximate
Sun 10:21:46 PM 42.6244 -83.1933 North 322 371 12,600  Level Cleveland Center
Sun 10:22:46 PM 42.7250 -83.1722 North 343 395 14,400 1,714 Climbing Cleveland Center
Sun 10:23:45 PM 42.8256 -83.1508 North 356 410 16,000 1,664 Climbing Cleveland Center
Sun 10:24:45 PM 42.9044 -83.0689 37° Northeast 349 402 17,700 1,450 Climbing Cleveland Center
Sun 10:25:45 PM 42.9344 -82.9311 73° East 336 387 18,900 1,200 Climbing Cleveland Center
Sun 10:26:45 PM 42.9664 -82.7906 73° East 355 409 20,100 1,091 Climbing Cleveland Center
Sun 10:27:46 PM 42.9981 -82.6469 73° East 376 433 21,100 978 Climbing Cleveland Center
Sun 10:28:17 PM 43.0167 -82.5500 75° East 400 460 21,600 923 Climbing Toronto Center
Sun 10:29:17 PM 43.0333 -82.4000 81° East 400 460 22,500 850 Climbing Toronto Center
Sun 10:30:17 PM 43.0667 -82.2500 73° East 410 472 23,300 750 Climbing Toronto Center
Sun 10:31:17 PM 43.1000 -82.1000 73° East 410 472 24,000 700 Climbing Toronto Center
Sun 10:32:17 PM 43.1167 -81.9333 82° East 410 472 24,700 650 Climbing Toronto Center
Sun 10:33:17 PM 43.1667 -81.8000 63° Northeast 420 483 25,300 550 Climbing Toronto Center
Sun 10:34:17 PM 43.2000 -81.6500 73° East 420 483 25,800 500 Climbing Toronto Center
Sun 10:35:17 PM 43.2333 -81.4833 75° East 420 483 26,300 600 Climbing Toronto Center
Sun 10:36:17 PM 43.2500 -81.3333 81° East 430 495 27,000 700 Climbing Toronto Center
Sun 10:37:17 PM 43.2833 -81.1667 75° East 420 483 27,700 750 Climbing Toronto Center
Sun 10:38:17 PM 43.3167 -81.0000 75° East 420 483 28,500 650 Climbing Toronto Center
Sun 10:39:17 PM 43.3333 -80.8667 80° East 420 483 29,000 250 Climbing Toronto Center
Sun 10:40:17 PM 43.3833 -80.6833 69° East 430 495 29,000  Level Toronto Center
Sun 10:41:17 PM 43.4167 -80.5500 71° East 430 495 29,000  Level Toronto Center
Sun 10:42:17 PM 43.4500 -80.3667 76° East 440 506 29,000  Level Toronto Center
Sun 10:43:17 PM 43.4833 -80.2333 71° East 440 506 29,000  Level Toronto Center
Sun 10:44:17 PM 43.5333 -80.0667 67° East 440 506 29,000  Level Toronto Center
Sun 10:45:17 PM 43.5667 -79.9167 73° East 440 506 29,000  Level Toronto Center
Sun 10:46:17 PM 43.6167 -79.7500 67° East 440 506 29,000  Level Toronto Center
Sun 10:47:17 PM 43.6500 -79.5833 74° East 450 518 29,000  Level Toronto Center
Sun 10:48:17 PM 43.7000 -79.4333 65° Northeast 450 518 29,000  Level Toronto Center
Sun 10:49:17 PM 43.7500 -79.2667 67° East 450 518 29,000  Level Toronto Center
Sun 10:50:17 PM 43.8000 -79.1000 67° East 460 529 29,000  Level Toronto Center
Sun 10:51:17 PM 43.8500 -78.9333 67° East 460 529 29,000  Level Toronto Center
Sun 10:52:17 PM 43.9000 -78.7833 65° Northeast 460 529 29,000  Level Toronto Center
Sun 10:53:17 PM 43.9500 -78.6167 67° East 460 529 29,000  Level Toronto Center
Sun 10:54:17 PM 43.9667 -78.4500 82° East 460 529 29,000  Level Toronto Center
Sun 10:55:17 PM 44.0333 -78.2833 61° Northeast 460 529 29,000  Level Toronto Center
Sun 10:56:17 PM 44.1000 -78.1167 61° Northeast 460 529 29,000  Level Toronto Center
Sun 10:57:17 PM 44.1500 -77.9667 65° Northeast 460 529 29,000  Level Toronto Center
Sun 10:58:17 PM 44.2333 -77.8167 52° Northeast 460 529 29,000  Level Toronto Center
Sun 10:59:17 PM 44.3000 -77.6500 61° Northeast 460 529 29,000  Level Toronto Center
Sun 11:00:17 PM 44.3833 -77.5167 49° Northeast 460 529 29,000  Level Toronto Center
Sun 11:01:17 PM 44.4333 -77.3667 65° Northeast 460 529 29,000 -146 Level Toronto Center
Sun 11:01:39 PM 44.4667 -77.3333 36° Northeast 460 529 28,800 -2,122 Descending Montreal Center
Sun 11:02:39 PM 44.5333 -77.1833 58° Northeast 470 541 26,100 -2,579 Descending Montreal Center
Sun 11:03:40 PM 44.6000 -77.0500 55° Northeast 440 506 23,600 -2,500 Descending Montreal Center
Sun 11:04:39 PM 44.6667 -76.9167 55° Northeast 410 472 21,100 -2,622 Descending Montreal Center
Sun 11:05:39 PM 44.7167 -76.8000 59° Northeast 390 449 18,400 -2,700 Descending Montreal Center
Sun 11:06:39 PM 44.7833 -76.6833 51° Northeast 370 426 15,700 -2,755 Descending Montreal Center
Sun 11:07:17 PM 44.8167 -76.5833 65° Northeast 360 414 13,900 -2,694 Descending Toronto Center
Sun 11:08:17 PM 44.8833 -76.4500 55° Northeast 350 403 11,300 -2,100 Descending Toronto Center
Sun 11:09:17 PM 44.9333 -76.3500 55° Northeast 320 368 9,700 -1,683 Descending Toronto Center
Sun 11:09:39 PM 44.9500 -76.3500 360° North 310 357 9,000 -1,902 Descending Montreal Center
Sun 11:10:39 PM 45.0000 -76.2833 43° Northeast 290 334 7,100 -2,050 Descending Montreal Center
Sun 11:11:39 PM 45.0333 -76.1833 65° Northeast 280 322 4,900 -1,600 Descending Montreal Center
Sun 11:12:39 PM 45.0833 -76.0833 55° Northeast 260 299 3,900 -950 Descending Montreal Center
Sun 11:13:39 PM 45.1333 -76.0333 35° Northeast 230 265 3,000 -450 Descending Montreal Center
Sun 11:14:39 PM 45.1667 -75.9667 55° Northeast 190 219 3,000  Level Montreal Center
Sun 11:15:39 PM 45.1833 -75.9000 70° East 200 230 3,000  Level Montreal Center
Sun 11:16:39 PM 45.2167 -75.8333 55° Northeast 200 230 3,000  Level Montreal Center

Login

Don't have an account? Register now (free) for customized features, flight alerts, and more!